Date,TemperatureHighF,TemperatureAvgF,TemperatureLowF,DewpointHighF,DewpointAvgF,DewpointLowF,HumidityHigh,HumidityAvg,HumidityLow,PressureMaxIn,PressureMinIn,WindSpeedMaxMPH,WindSpeedAvgMPH,GustSpeedMaxMPH,PrecipitationSumIn
2014-1-1,43.3,42.0,39.7,42.4,40.8,38.3,97,96,92,29.17,28.72,12,6,21,0.13
2014-1-2,47.8,45.5,40.5,45.9,42.8,38.8,96,90,78,29.12,28.65,19,9,40,0.10
2014-1-3,48.2,45.5,42.1,43.9,41.7,38.5,94,86,78,29.13,28.55,33,17,55,0.56
2014-1-4,44.8,39.8,37.2,39.7,37.5,35.2,95,92,81,29.32,29.05,11,6,25,0.09
2014-1-5,52.5,45.0,39.7,50.7,42.9,38.3,97,93,81,29.32,28.79,18,10,34,0.37
2014-1-6,50.7,48.0,43.9,46.8,44.5,41.5,93,88,81,28.98,28.58,21,14,43,0.30
2014-1-7,49.8,47.5,44.6,47.1,45.0,42.1,96,91,85,29.51,28.97,20,11,39,0.39
2014-1-8,46.9,42.7,38.1,45.9,42.0,37.4,98,97,96,29.81,29.52,9,3,16,0.02
2014-1-9,47.5,41.2,34.9,44.1,39.7,34.3,99,95,85,29.78,29.68,10,5,16,0.02
2014-1-10,46.4,42.6,36.1,45.9,41.2,34.5,98,95,91,29.89,29.64,10,4,20,0.28
2014-1-11,43.2,38.5,33.3,41.4,36.7,32.0,97,93,85,30.10,29.88,10,4,20,0.03
2014-1-12,49.6,45.8,41.5,46.9,44.1,39.9,97,94,88,29.90,29.42,15,9,31,0.32
2014-1-13,43.2,39.5,33.4,41.7,37.8,31.6,96,93,87,29.56,29.39,14,5,29,0.20
2014-1-14,50.9,43.0,34.7,50.5,42.4,33.4,99,98,95,29.57,29.28,14,7,25,0.51
2014-1-15,51.1,47.0,41.5,50.7,45.5,39.9,99,95,86,29.28,28.98,15,8,28,0.28
2014-1-16,46.2,42.8,41.2,44.4,41.6,39.9,97,96,92,28.98,28.84,9,4,18,0.00
2014-1-17,49.3,43.7,40.8,46.0,41.7,38.7,96,93,85,29.16,28.97,8,4,14,0.02
2014-1-18,43.0,39.5,36.0,42.3,38.4,35.1,98,96,90,29.17,29.07,6,1,10,0.00
2014-1-19,44.2,41.6,39.7,42.8,40.3,38.3,97,95,91,29.53,29.17,9,4,15,0.23
2014-1-20,46.8,41.8,37.6,42.8,39.6,36.0,97,92,79,29.78,29.53,13,6,26,0.02
2014-1-21,48.6,45.6,43.9,46.4,44.0,41.7,97,94,89,29.60,29.34,15,8,27,0.20
2014-1-22,48.6,44.8,41.7,46.6,42.8,39.4,96,93,86,29.85,29.37,12,7,25,0.09
2014-1-23,47.7,43.2,40.6,46.6,41.5,38.1,98,94,90,29.99,29.76,16,7,31,0.46
2014-1-24,52.5,50.5,45.0,52.2,50.0,44.2,99,98,96,29.81,29.62,16,10,28,0.65
2014-1-25,50.5,46.1,41.4,47.8,43.0,37.0,96,89,79,29.97,29.67,24,12,44,0.17
2014-1-26,51.3,43.1,37.4,50.5,39.5,33.1,98,88,65,29.80,29.09,25,15,48,0.75
2014-1-27,48.0,44.3,39.9,45.3,42.1,38.1,95,92,87,29.09,28.88,23,14,38,0.46
2014-1-28,48.2,44.1,40.3,44.4,41.0,37.2,94,89,75,29.31,28.89,13,7,24,0.02
2014-1-29,47.5,42.4,38.8,42.3,39.0,36.5,96,88,79,29.64,29.31,7,4,18,0.00
2014-1-30,43.5,40.8,37.0,42.6,39.8,35.8,98,96,94,29.65,29.50,9,4,17,0.03
2014-1-31,47.8,42.0,34.7,46.8,39.9,31.6,97,92,70,29.49,28.78,19,10,41,0.55
2014-2-1,48.7,43.8,36.9,45.3,40.6,32.0,97,89,72,29.19,28.50,28,17,48,0.60
2014-2-2,49.3,45.0,39.7,45.3,41.6,36.3,94,88,81,29.43,29.15,20,11,36,0.09
2014-2-3,49.3,43.8,39.7,45.5,41.4,37.0,97,91,84,29.20,29.01,20,9,39,0.54
2014-2-4,45.3,41.0,36.3,43.3,38.6,35.1,95,91,81,29.20,28.32,15,8,36,0.13
2014-2-5,47.3,45.5,43.5,45.9,44.1,42.1,97,94,92,29.00,28.24,13,8,24,0.24
2014-2-6,47.1,42.6,39.6,42.3,39.5,36.7,95,89,78,29.17,29.00,11,6,22,0.01
2014-2-7,45.3,40.7,35.6,44.1,38.2,33.6,96,91,86,29.25,28.41,16,7,32,0.24
2014-2-8,47.7,44.5,41.4,45.9,42.5,38.7,96,93,88,28.54,28.02,19,12,36,0.36
2014-2-9,46.9,41.9,32.4,42.6,37.8,29.5,95,86,61,29.04,28.54,18,9,32,0.13
2014-2-10,47.7,39.9,31.3,40.5,35.8,29.1,97,86,60,29.42,29.05,19,6,37,0.10
2014-2-11,41.9,37.6,35.1,39.9,34.4,32.0,94,88,77,29.29,29.09,21,10,38,0.24
2014-2-12,45.5,40.5,37.2,43.9,37.6,33.1,97,90,75,29.29,28.23,30,13,56,0.69
2014-2-13,46.9,40.9,35.8,39.9,37.4,33.6,95,88,70,29.30,28.95,19,11,39,0.20
2014-2-14,45.5,39.4,37.0,44.8,38.2,35.6,98,95,91,29.28,28.31,15,6,30,0.28
2014-2-15,49.5,43.9,38.7,42.8,38.7,34.9,96,83,62,29.65,28.59,12,7,25,0.06
2014-2-16,47.8,42.0,36.0,44.1,39.4,33.6,95,90,82,29.67,29.27,12,6,24,0.06
2014-2-17,52.2,45.9,41.0,49.1,44.7,39.9,98,96,84,29.61,29.26,8,3,18,0.05
2014-2-18,50.7,44.6,38.8,49.5,43.7,38.3,99,97,92,29.75,29.61,10,5,16,0.03
2014-2-19,51.4,48.7,45.7,50.9,48.1,45.1,99,98,95,29.75,29.21,12,6,20,0.23
2014-2-20,51.1,43.7,38.8,50.5,41.4,35.8,99,92,77,29.41,29.08,18,10,43,0.35
2014-2-21,48.6,44.0,40.6,43.3,41.0,38.1,94,89,76,29.52,29.29,23,13,41,0.33
2014-2-22,50.7,46.5,42.6,49.8,44.5,39.7,97,93,86,29.56,29.24,13,9,30,0.13
2014-2-23,51.3,48.3,43.5,49.8,45.7,41.4,98,91,80,29.40,29.09,17,10,32,0.49
2014-2-24,46.0,43.4,41.2,43.2,41.4,39.2,96,93,88,29.39,28.95,16,8,30,0.17
2014-2-25,49.6,44.4,40.8,44.1,41.2,38.1,95,88,74,29.50,28.84,21,13,38,0.44
2014-2-26,49.3,45.4,40.8,44.8,41.6,39.0,95,87,71,29.78,29.41,20,11,36,0.20
2014-2-27,48.0,43.1,38.7,42.8,39.4,37.0,96,87,74,29.67,29.42,15,8,29,0.36
2014-2-28,49.5,41.5,36.9,44.4,38.6,34.5,96,90,73,29.75,29.46,14,5,30,0.16
2014-3-1,49.6,43.7,39.6,47.1,42.1,37.9,97,94,87,29.64,29.38,13,5,24,0.08
2014-3-2,48.9,42.3,38.1,45.9,39.9,36.0,97,91,81,29.41,28.78,16,7,29,0.22
2014-3-3,50.4,41.5,34.9,43.2,38.6,33.4,96,90,68,29.51,28.77,12,5,27,0.09
2014-3-4,49.8,43.4,39.7,45.0,41.0,38.1,96,91,82,29.87,29.50,10,4,15,0.01
2014-3-5,52.0,47.9,41.2,49.8,45.8,39.9,98,93,82,29.96,29.87,12,7,21,0.29
2014-3-6,52.5,50.0,47.8,52.5,49.7,47.5,100,99,98,29.99,29.80,15,7,26,0.54
2014-3-7,50.4,45.5,41.7,47.7,39.2,32.0,99,80,55,30.24,29.80,14,7,24,0.03
2014-3-8,56.1,50.9,44.8,49.6,47.3,39.4,97,87,76,30.00,29.76,17,11,33,0.04
2014-3-9,46.0,44.1,40.6,44.1,42.4,38.5,97,94,86,30.29,29.88,7,2,13,0.06
2014-3-10,52.7,43.5,37.6,46.8,39.7,34.7,98,87,67,30.54,30.29,4,1,7,0.01
2014-3-11,56.3,43.6,33.6,45.9,38.2,32.5,97,83,57,30.57,30.49,4,1,7,0.00
2014-3-12,52.0,44.4,39.2,46.0,41.7,37.4,97,90,76,30.53,30.45,6,2,10,0.00
2014-3-13,51.4,46.3,40.6,48.0,44.9,39.2,98,95,88,30.50,30.43,3,1,8,0.01
2014-3-14,52.0,48.0,44.4,50.0,46.3,43.5,97,94,91,30.47,30.38,12,6,20,0.00
2014-3-15,55.2,49.2,45.7,50.7,46.6,43.5,97,91,84,30.50,30.44,17,10,28,0.00
2014-3-16,53.4,49.4,46.2,50.2,47.3,45.0,98,93,85,30.45,30.29,12,7,20,0.00
2014-3-17,51.3,48.1,44.8,48.6,46.0,43.2,97,92,86,30.29,29.95,12,6,19,0.01
2014-3-18,54.0,50.2,47.7,48.9,47.2,45.3,96,90,79,30.15,29.80,17,13,32,0.09
2014-3-19,52.9,50.9,48.6,49.1,48.1,46.8,97,90,84,30.12,29.58,19,15,38,0.01
2014-3-20,51.6,46.0,40.6,50.2,42.9,36.5,97,89,75,29.59,29.38,20,12,42,0.87
2014-3-21,42.4,39.4,38.7,39.2,35.3,33.8,88,85,82,29.53,29.33,14,9,22,0.39
2014-3-22,49.5,42.1,37.9,43.5,38.2,34.9,95,86,60,29.71,29.25,15,8,29,0.33
2014-3-23,51.1,43.7,37.8,41.9,38.2,35.6,93,82,59,29.96,29.71,10,5,19,0.07
2014-3-24,51.3,45.8,41.2,47.8,42.6,37.4,95,89,82,29.80,29.20,21,12,40,0.20
2014-3-25,53.6,46.4,41.5,43.5,40.5,38.3,91,81,61,30.28,29.50,11,5,27,0.00
2014-3-26,53.6,46.2,40.3,43.3,40.5,37.6,92,81,63,30.32,30.03,8,4,17,0.00
2014-3-27,48.0,42.4,38.5,43.3,38.7,35.8,96,87,70,30.04,29.90,9,3,22,0.24
2014-3-28,48.0,41.8,35.8,42.3,39.2,33.6,97,91,77,30.07,29.97,13,6,26,0.06
2014-3-29,51.3,45.2,39.7,47.1,42.6,38.5,97,91,72,29.98,29.62,9,4,20,0.33
2014-3-30,56.5,49.0,41.5,50.4,45.4,39.4,96,88,67,29.83,29.62,9,4,21,0.09
2014-3-31,61.7,52.5,47.7,51.4,48.0,44.4,97,85,66,29.79,29.72,9,4,18,0.04
2014-4-1,59.7,51.3,43.3,49.1,45.6,42.1,97,82,58,29.81,29.63,8,4,19,0.03
2014-4-2,56.7,51.1,47.3,54.0,49.1,45.3,96,93,84,29.62,29.38,9,5,20,0.16
2014-4-3,61.2,53.2,48.0,52.0,49.1,46.0,93,87,71,29.60,29.40,11,5,19,0.03
2014-4-4,61.2,53.6,49.6,51.6,48.6,44.2,95,84,56,29.66,29.59,11,5,22,0.05
2014-4-6,48.4,48.4,48.4,45.3,45.2,45.1,89,89,89,29.70,29.69,4,3,9,0.09
2014-4-7,53.4,47.8,41.7,48.2,43.4,37.9,94,85,65,29.81,29.61,16,7,26,0.06
2014-4-8,54.1,47.8,40.5,48.9,43.4,37.9,94,85,70,30.23,29.81,16,9,26,0.02
2014-4-9,56.8,51.7,49.8,51.8,49.0,44.6,95,90,77,30.24,30.19,14,10,24,0.00
2014-4-10,58.3,50.5,43.3,51.1,45.7,39.2,97,85,62,30.25,30.15,13,6,22,0.01
2014-4-11,53.2,47.6,41.4,45.7,42.7,38.7,94,83,71,30.26,30.09,15,6,24,0.00
2014-4-12,57.4,50.8,47.5,50.9,44.5,39.0,97,80,55,30.20,29.97,16,10,27,0.04
2014-4-13,55.2,49.6,45.7,48.6,44.5,41.5,92,83,71,30.29,30.20,17,7,27,0.00
2014-4-14,58.6,51.2,44.6,44.4,42.2,39.0,90,72,55,30.38,30.29,6,2,10,0.00
2014-4-15,64.2,52.0,39.7,48.0,41.7,37.0,93,70,44,30.33,30.22,14,6,31,0.00
2014-4-16,61.0,52.6,46.9,50.9,46.8,40.8,96,81,68,30.23,30.11,14,8,23,0.00
2014-4-17,53.8,50.7,46.9,50.5,47.2,44.8,95,88,76,30.23,30.13,10,6,19,0.00
2014-4-18,59.9,52.1,46.6,49.6,47.1,44.8,95,84,66,30.23,30.11,6,2,11,0.00
2014-4-19,63.7,54.6,46.9,51.6,46.1,40.1,95,75,45,30.12,29.95,8,2,16,0.00
2014-4-20,62.2,52.7,41.2,48.6,42.7,37.6,89,70,49,30.02,29.80,12,5,23,0.00
2014-4-21,63.7,55.5,49.6,49.6,46.2,41.7,91,72,46,29.80,29.67,12,7,25,0.02
2014-4-22,57.9,53.0,48.6,51.8,48.3,43.3,92,84,76,29.72,29.65,7,2,14,0.02
2014-4-23,59.4,51.5,46.8,50.9,48.0,44.8,94,88,68,29.93,29.59,12,4,20,0.51
2014-4-24,62.4,52.0,44.6,49.1,45.2,41.5,97,79,53,30.03,29.92,7,4,14,0.00
2014-4-25,59.5,51.6,45.0,50.5,45.5,40.3,90,80,65,29.97,29.37,13,6,33,0.04
2014-4-26,57.0,50.6,44.4,51.1,47.3,42.8,95,89,77,29.56,29.25,15,8,42,0.22
2014-4-27,63.3,53.9,48.0,51.8,47.7,45.1,93,81,56,29.92,29.56,7,3,17,0.09
2014-4-28,66.2,55.3,44.2,55.0,48.2,41.5,96,79,46,29.93,29.86,5,2,9,0.01
2014-4-29,66.6,58.5,52.5,52.5,50.6,48.0,91,76,54,29.88,29.81,9,3,16,0.00
2014-4-30,60.4,53.7,50.4,56.1,50.8,47.1,94,90,83,29.82,29.69,13,6,23,0.16
2014-5-1,59.4,54.2,49.8,55.4,52.0,48.7,97,92,83,30.10,29.71,11,4,18,0.08
2014-5-2,60.3,54.6,50.5,55.0,51.5,48.9,94,89,82,30.30,30.10,8,4,16,0.00
2014-5-3,61.5,55.4,52.3,58.8,53.8,50.9,97,94,88,30.30,30.16,8,5,17,0.05
2014-5-4,57.6,54.7,52.3,54.3,52.8,49.3,97,93,88,30.17,29.82,12,6,23,0.02
2014-5-5,58.1,52.7,50.5,53.4,49.8,47.8,96,90,82,29.82,29.45,17,10,36,0.35
2014-5-6,57.0,52.1,49.1,50.7,48.2,44.6,93,87,73,29.54,29.44,18,10,32,0.07
2014-5-7,55.9,51.5,47.7,51.8,49.0,44.8,94,91,83,29.76,29.52,18,12,30,0.26
2014-5-8,55.9,52.9,50.4,54.9,51.0,48.4,98,93,83,29.74,29.58,17,8,29,0.21
2014-5-9,56.7,51.7,47.7,49.8,47.5,45.1,95,86,72,29.84,29.64,17,10,31,0.03
2014-5-10,58.3,52.9,48.7,54.1,50.5,47.3,96,92,81,29.54,29.29,19,13,35,0.24
2014-5-11,53.1,49.8,46.0,50.2,47.1,43.3,96,91,78,29.79,29.54,15,10,29,0.07
2014-5-12,57.9,49.6,44.2,52.0,46.6,42.3,96,90,73,30.03,29.78,12,4,19,0.32
2014-5-13,61.9,54.8,46.6,51.8,47.8,44.6,94,78,63,30.40,30.03,11,7,22,0.00
2014-5-14,56.7,53.7,49.5,55.8,52.2,46.4,98,95,87,30.57,30.39,10,5,16,0.04
2014-5-15,63.7,56.4,52.2,55.0,52.4,49.8,97,87,73,30.60,30.56,7,3,11,0.00
2014-5-16,61.0,54.9,50.9,53.8,51.0,48.7,95,87,70,30.56,30.34,14,6,24,0.00
2014-5-17,61.3,55.2,52.5,53.6,51.2,48.6,97,87,65,30.34,29.83,18,9,28,0.23
2014-5-18,57.9,52.5,47.1,53.6,47.5,41.2,98,84,60,29.83,29.68,10,6,18,0.37
2014-5-19,60.1,52.0,45.9,55.2,49.5,42.6,97,92,77,29.69,29.56,7,3,16,0.46
2014-5-20,66.0,57.4,52.9,59.9,55.2,51.6,98,93,75,29.67,29.56,11,4,19,0.46
2014-5-21,62.1,54.3,50.4,52.2,49.6,45.9,97,85,61,29.79,29.67,8,4,16,0.01
2014-5-22,57.9,51.8,47.3,51.6,48.1,44.8,95,87,77,29.77,29.67,12,8,24,0.12
2014-5-23,55.9,50.7,47.1,48.4,45.9,42.8,97,84,69,29.91,29.77,13,9,27,0.27
2014-5-24,55.2,51.2,48.0,51.1,47.6,45.1,92,88,80,29.98,29.88,12,7,24,0.06
2014-5-25,56.7,52.6,47.1,50.4,48.3,45.0,93,86,77,30.04,29.97,9,4,20,0.00
2014-5-26,61.0,54.7,50.2,53.4,49.7,43.0,96,84,60,30.05,30.01,11,4,18,0.06
2014-5-27,66.4,57.4,46.8,54.1,50.3,44.4,96,78,59,30.05,30.01,7,2,12,0.00
2014-5-28,70.5,58.6,47.7,57.4,52.3,45.1,97,81,55,30.08,30.02,8,2,15,0.03
2014-5-29,64.8,57.6,50.4,54.7,51.7,47.3,96,81,67,30.22,30.06,7,2,14,0.01
2014-5-30,67.3,57.2,48.0,54.7,50.5,46.8,97,80,59,30.29,30.21,5,1,13,0.00
2014-5-31,62.1,56.4,50.2,57.0,53.1,48.2,96,89,81,30.30,30.23,12,6,20,0.00
2014-6-1,64.6,58.0,55.6,58.8,55.7,53.8,97,92,81,30.23,29.98,12,6,20,0.03
2014-6-2,58.6,54.9,51.6,54.5,51.7,49.1,97,89,75,30.06,29.95,10,6,15,0.02
2014-6-3,59.7,53.2,47.7,51.3,47.9,43.7,95,83,64,29.95,29.80,13,6,21,0.06
2014-6-4,59.4,51.7,43.7,49.1,44.1,40.6,91,76,58,29.85,29.78,10,4,17,0.02
2014-6-5,64.4,53.8,40.6,50.0,42.3,37.2,97,68,42,29.85,29.79,6,1,12,0.00
2014-6-6,61.0,55.5,50.2,56.5,51.4,44.8,93,86,74,29.83,29.64,11,6,25,0.10
2014-6-7,69.3,60.8,54.3,58.5,55.1,51.8,93,82,61,29.76,29.65,11,6,23,0.06
2014-6-8,63.7,57.1,51.6,59.7,54.4,49.8,95,91,78,29.90,29.74,10,4,22,0.44
2014-6-9,63.9,58.2,54.1,58.8,55.4,52.5,96,91,80,29.90,29.81,9,5,18,0.16
2014-6-10,65.7,58.8,52.5,57.0,54.2,51.3,97,85,66,30.01,29.79,9,4,15,0.02
2014-6-11,65.7,58.8,52.0,57.6,54.2,50.5,97,85,68,30.33,30.01,10,5,18,0.00
2014-6-12,69.8,61.5,54.9,59.0,55.4,52.5,93,81,65,30.33,30.29,12,6,21,0.00
2014-6-13,64.8,59.8,57.2,61.5,57.2,53.4,96,91,86,30.36,30.28,11,4,19,0.13
2014-6-14,67.8,60.8,56.1,58.8,56.0,52.5,95,85,68,30.44,30.35,6,3,11,0.01
2014-6-15,65.8,59.6,52.2,55.8,53.7,50.0,95,82,68,30.47,30.44,9,4,14,0.00
2014-6-16,73.2,63.3,50.2,58.8,54.0,48.4,95,73,56,30.48,30.40,10,4,20,0.00
2014-6-17,77.5,66.7,55.4,64.6,58.1,53.4,96,75,56,30.47,30.39,5,2,14,0.00
2014-6-18,78.3,66.0,57.7,64.8,59.2,55.2,96,80,55,30.42,30.35,10,4,19,0.00
2014-6-19,68.0,60.8,55.0,55.4,53.8,51.4,92,78,60,30.39,30.31,8,6,20,0.00
2014-6-20,66.0,60.5,56.3,54.9,52.4,49.5,83,75,62,30.33,30.23,9,4,17,0.00
2014-6-21,66.7,60.3,52.9,57.7,54.2,50.5,95,81,64,30.26,30.21,8,4,19,0.00
2014-6-22,65.8,60.4,51.6,57.7,54.4,50.2,97,81,69,30.28,30.23,6,2,14,0.00
2014-6-23,73.6,63.8,56.8,58.5,55.5,50.2,93,76,48,30.32,30.26,5,3,15,0.00
2014-6-24,71.4,63.5,52.7,59.5,56.1,50.7,97,78,59,30.28,30.09,5,2,11,0.00
2014-6-25,69.6,63.2,60.4,61.5,59.2,56.8,95,87,68,30.09,29.91,3,1,8,0.35
2014-6-26,62.8,58.9,56.5,60.1,56.9,54.7,97,93,82,29.91,29.81,8,4,19,0.09
2014-6-27,68.2,59.7,55.0,58.3,55.3,52.3,97,86,60,29.89,29.78,9,3,17,0.04
2014-6-28,68.7,59.2,50.5,53.2,50.7,47.3,95,75,50,29.97,29.88,8,4,16,0.00
2014-6-29,68.4,60.0,52.0,54.1,49.3,47.7,86,69,50,30.02,29.96,6,2,13,0.00
2014-6-30,70.9,62.8,53.8,54.3,50.2,45.1,90,66,43,30.07,29.97,7,3,16,0.00
2014-7-1,75.4,63.9,50.2,57.6,50.5,46.8,89,64,43,30.14,30.07,5,2,12,0.00
2014-7-2,66.4,62.1,57.6,60.1,57.7,54.3,96,86,76,30.13,30.03,17,7,29,0.02
2014-7-3,62.4,59.1,53.2,61.2,57.1,52.0,96,93,80,30.07,29.72,12,6,25,0.08
2014-7-4,63.0,59.8,55.2,61.2,56.5,48.9,99,89,68,29.72,29.47,11,6,23,0.36
2014-7-5,64.0,56.9,50.5,53.8,50.0,46.4,91,79,60,29.61,29.55,14,6,23,0.05
2014-7-6,65.3,57.2,50.5,55.6,51.1,47.8,93,81,60,29.83,29.60,11,5,21,0.05
2014-7-7,66.6,58.4,51.3,54.0,51.2,48.2,92,78,54,29.99,29.83,9,3,14,0.00
2014-7-8,66.9,59.9,53.8,54.7,52.2,49.6,94,77,59,30.31,29.99,9,5,21,0.02
2014-7-9,64.6,59.0,51.4,61.5,54.5,48.0,94,85,68,30.33,30.24,10,4,16,0.00
2014-7-10,70.2,62.7,58.3,62.1,59.0,57.0,97,88,75,30.24,30.15,11,6,18,0.01
2014-7-11,63.9,61.3,59.5,62.6,60.0,58.1,97,95,92,30.16,30.02,8,4,14,0.02
2014-7-12,62.2,60.8,57.6,61.7,59.9,55.0,99,97,89,30.02,29.80,9,6,18,0.09
2014-7-13,66.2,59.7,55.0,56.1,53.5,50.5,92,80,60,29.91,29.85,11,5,19,0.00
2014-7-14,66.2,60.7,57.0,63.9,57.7,53.8,98,90,75,29.98,29.69,14,7,26,0.17
2014-7-15,68.7,61.1,51.3,59.7,55.0,49.1,96,81,63,30.06,29.92,12,4,21,0.11
2014-7-16,66.6,62.3,58.6,60.8,59.0,55.6,97,89,77,30.10,29.89,14,8,27,0.02
2014-7-17,72.7,64.7,57.7,64.9,60.7,55.9,97,87,73,30.11,29.96,6,1,11,0.01
2014-7-18,74.3,64.6,60.1,66.9,60.7,56.1,97,87,72,29.96,29.72,8,2,15,0.19
2014-7-19,68.5,63.5,60.8,63.0,60.6,59.0,95,91,81,29.77,29.74,6,1,9,0.00
2014-7-20,69.4,63.1,58.2,60.3,58.1,56.2,94,84,68,30.05,29.82,10,4,20,0.00
2014-7-21,70.3,65.1,60.1,66.4,62.7,58.0,96,92,85,30.14,30.03,8,3,13,0.05
2014-7-22,75.9,68.8,65.1,71.4,66.4,63.7,98,93,82,30.20,30.13,7,2,13,0.17
2014-7-23,76.6,68.8,64.6,68.7,65.2,62.8,97,89,73,30.19,30.08,5,1,13,0.04
2014-7-24,73.8,67.1,62.4,67.1,64.0,61.7,98,90,75,30.11,30.08,6,2,13,0.22
2014-7-25,80.8,68.4,60.4,68.4,63.6,59.5,98,86,59,30.11,30.02,9,3,16,0.02
2014-7-26,71.2,64.9,58.6,62.6,60.1,56.3,98,85,65,30.14,30.04,10,4,18,0.06
2014-7-27,71.6,62.5,57.0,58.8,55.7,53.6,94,79,58,30.15,30.10,9,5,19,0.00
2014-7-28,68.4,63.0,59.0,59.5,56.1,53.8,89,79,67,30.17,30.13,8,4,18,0.00
2014-7-29,69.3,63.0,57.9,61.0,57.4,54.1,96,83,62,30.14,30.08,8,4,15,0.00
2014-7-30,66.9,61.8,57.9,63.0,58.4,54.9,96,89,75,30.11,29.94,13,6,21,0.02
2014-7-31,69.1,62.1,57.6,62.1,57.5,54.1,96,86,64,29.95,29.76,13,5,22,0.03
2014-8-1,64.0,59.1,55.0,58.8,56.6,53.4,97,92,78,29.76,29.62,8,2,15,0.35
2014-8-2,61.3,57.4,52.9,57.6,54.0,50.2,96,89,79,29.66,29.60,9,4,18,0.10
2014-8-3,68.4,59.9,54.7,57.7,54.0,50.7,96,82,57,29.85,29.61,11,5,20,0.09
2014-8-4,72.3,61.3,50.7,60.4,54.9,48.7,97,81,55,29.91,29.85,6,2,14,0.16
2014-8-5,70.0,63.3,60.1,62.6,60.6,58.6,97,91,75,29.91,29.79,6,2,11,0.17
2014-8-6,67.3,62.0,54.5,62.4,56.3,49.8,97,82,58,29.94,29.76,13,5,21,0.01
2014-8-7,66.6,59.7,52.3,58.3,53.8,48.9,95,81,63,29.95,29.87,11,5,21,0.13
2014-8-8,66.4,60.1,55.8,58.6,55.0,50.9,96,84,62,29.87,29.63,12,6,24,0.12
2014-8-9,66.7,60.4,53.2,58.5,55.2,51.6,96,84,69,29.64,29.53,11,5,21,0.04
2014-8-10,64.6,58.4,53.2,56.5,53.6,50.5,97,85,64,29.61,29.46,12,4,22,0.17
2014-8-11,64.2,57.9,54.1,57.2,53.6,51.3,94,86,70,29.67,29.58,17,8,30,0.17
2014-8-12,65.7,58.3,52.2,58.1,54.1,50.0,96,86,71,29.68,29.57,10,5,19,0.24
2014-8-13,66.7,60.0,55.2,58.8,54.4,51.1,92,82,67,29.82,29.68,9,4,17,0.00
2014-8-14,66.7,59.0,55.0,57.9,53.5,49.1,97,83,60,30.06,29.81,9,4,19,0.15
2014-8-15,66.7,59.1,53.1,53.8,51.2,48.4,88,76,56,30.23,30.06,8,4,16,0.00
2014-8-16,62.2,58.3,55.6,57.0,54.1,51.6,95,86,74,30.22,29.97,17,7,28,0.02
2014-8-17,65.5,57.5,52.5,55.4,50.4,46.0,95,78,56,29.97,29.91,11,6,22,0.01
2014-8-18,63.9,56.6,52.3,52.0,49.3,45.3,92,77,56,30.06,29.95,9,5,23,0.01
2014-8-19,62.2,56.0,49.5,51.3,48.0,45.1,88,75,59,30.13,29.98,7,4,15,0.00
2014-8-20,61.5,55.6,48.9,52.0,48.3,45.5,90,77,61,30.16,30.07,7,2,14,0.00
2014-8-21,65.5,57.0,51.6,57.6,51.3,47.5,92,82,61,30.07,29.84,11,6,22,0.03
2014-8-22,63.7,55.9,50.7,51.1,48.7,45.3,90,78,56,30.06,29.91,7,3,17,0.00
2014-8-23,63.9,55.7,47.1,49.5,46.6,43.2,88,73,53,30.10,30.05,6,3,12,0.00
2014-8-24,61.2,55.7,49.3,58.3,52.1,43.9,97,88,76,30.09,29.69,8,3,19,0.12
2014-8-25,66.9,60.6,58.3,64.0,59.5,57.4,98,96,88,29.69,29.37,10,4,22,0.24
2014-8-26,63.5,60.3,58.3,59.4,57.6,56.1,96,91,85,29.88,29.48,9,5,20,0.00
2014-8-27,61.9,59.7,57.9,59.9,56.9,55.0,95,91,88,29.87,29.46,11,7,26,0.04
2014-8-28,64.6,58.7,54.7,58.1,55.4,51.4,97,89,71,29.60,29.47,18,9,35,0.56
2014-8-29,61.9,59.0,56.1,60.3,57.1,54.1,97,93,86,29.86,29.48,20,11,36,0.22
2014-8-30,63.1,59.3,55.6,57.6,54.7,52.3,95,85,70,30.11,29.86,10,5,18,0.00
2014-8-31,63.7,58.4,52.2,62.4,56.7,50.2,98,94,87,30.11,29.95,13,4,23,0.12
2014-9-1,62.8,58.8,55.6,57.0,53.5,50.7,97,83,69,30.25,30.07,8,2,12,0.01
2014-9-2,63.1,59.6,55.9,54.0,52.0,50.2,86,76,65,30.26,30.18,3,1,6,0.00
2014-9-3,68.4,60.9,53.1,58.8,54.7,50.2,94,81,66,30.19,30.08,5,1,9,0.00
2014-9-4,73.0,64.7,60.8,64.2,60.5,58.1,95,87,72,30.09,30.04,7,3,14,0.00
2014-9-5,66.7,61.0,57.4,61.3,58.8,55.9,96,93,83,30.08,30.04,8,4,14,0.00
2014-9-6,61.9,56.2,49.6,56.1,50.4,46.6,97,82,60,30.11,30.06,9,5,15,0.02
2014-9-7,64.6,54.4,44.8,52.3,48.5,43.3,97,82,59,30.16,30.10,7,3,14,0.00
2014-9-8,63.1,54.1,44.6,52.2,48.6,43.3,97,83,60,30.22,30.16,5,2,11,0.01
2014-9-9,67.6,56.3,46.8,54.0,50.3,45.7,97,82,56,30.22,30.14,4,1,9,0.00
2014-9-10,70.5,58.5,46.6,57.9,52.4,45.0,97,81,57,30.15,30.06,6,2,11,0.00
2014-9-11,73.0,60.8,49.8,59.7,54.7,48.0,97,81,61,30.18,30.10,7,2,16,0.00
2014-9-12,68.4,60.0,50.5,58.8,54.4,48.0,95,83,68,30.26,30.16,6,2,16,0.00
2014-9-13,72.7,62.7,54.3,58.8,55.8,52.7,94,79,58,30.30,30.26,5,2,12,0.00
2014-9-14,67.1,59.5,53.2,58.6,54.9,51.3,96,85,69,30.28,30.13,7,3,16,0.00
2014-9-15,67.5,59.1,52.3,59.4,54.5,50.4,97,86,65,30.15,30.02,6,2,16,0.00
2014-9-16,66.9,58.5,51.6,60.1,55.4,50.0,98,90,77,30.03,29.89,5,2,11,0.00
2014-9-17,70.2,61.4,54.5,63.1,58.2,53.4,98,90,75,29.92,29.84,8,4,17,0.00
2014-9-18,69.1,61.0,54.5,60.8,57.0,53.1,96,87,72,29.87,29.80,9,4,21,0.00
2014-9-19,63.0,60.2,58.3,61.5,58.7,56.7,96,95,93,30.05,29.83,8,4,16,0.02
2014-9-20,64.9,59.0,50.5,57.9,53.5,48.0,95,83,64,30.29,30.05,10,6,21,0.00
2014-9-21,64.9,53.2,45.3,54.7,49.2,44.2,98,87,66,30.34,30.29,6,1,11,0.01
2014-9-22,64.8,55.6,44.4,57.4,51.5,42.8,97,87,69,30.33,30.19,9,3,16,0.00
2014-9-23,60.3,57.1,50.7,57.2,54.8,49.5,96,92,78,30.19,29.99,12,4,22,0.05
2014-9-24,64.8,57.1,48.6,56.8,52.5,46.8,97,85,61,30.08,29.99,10,4,17,0.00
2014-9-25,63.1,60.3,58.6,63.0,59.2,55.9,99,96,87,30.06,29.99,13,8,23,0.06
2014-9-26,63.9,57.6,50.0,58.3,52.1,45.3,96,83,60,30.27,30.04,11,4,20,0.03
2014-9-27,66.6,59.3,50.2,58.5,54.8,47.8,94,86,73,30.27,30.15,11,3,23,0.01
2014-9-28,67.1,61.6,59.2,61.3,59.0,57.2,96,91,81,30.15,30.08,9,3,15,0.00
2014-9-29,64.9,61.2,58.3,63.3,59.5,55.9,97,94,91,30.12,30.00,6,1,13,0.17
2014-9-30,65.1,60.0,57.7,63.7,58.0,54.7,97,93,84,30.04,29.95,12,6,19,0.03
2014-10-1,61.9,56.0,46.9,59.0,49.8,42.6,95,81,51,30.41,30.03,9,4,19,0.04
2014-10-2,62.8,55.1,47.1,57.7,49.7,44.6,95,83,66,30.41,29.95,12,6,25,0.00
2014-10-3,63.3,56.3,49.6,59.5,52.9,46.4,97,89,79,29.95,29.83,14,4,29,0.29
2014-10-4,57.7,50.8,45.7,49.3,45.3,41.0,93,82,62,30.04,29.82,11,6,20,0.08
2014-10-5,57.7,54.1,51.3,54.7,51.1,48.6,97,89,81,30.02,29.15,19,10,41,0.23
2014-10-6,55.8,48.8,43.0,55.0,45.6,41.0,97,89,63,29.40,29.15,13,4,32,0.29
2014-10-7,55.9,48.4,41.4,49.5,45.2,40.3,98,89,73,29.37,29.23,10,4,22,0.05
2014-10-8,60.1,53.0,49.1,52.9,49.3,47.3,95,87,71,29.23,29.01,9,4,17,0.00
2014-10-9,59.8,51.0,47.1,53.1,47.9,43.2,97,90,68,29.52,29.06,8,3,17,0.12
2014-10-10,60.1,50.9,46.4,52.7,47.6,44.4,97,89,69,29.73,29.51,9,2,16,0.09
2014-10-11,60.4,48.5,39.9,53.4,45.3,38.7,98,89,72,29.89,29.73,6,1,11,0.00
2014-10-12,58.8,46.6,39.4,53.1,43.8,37.9,98,90,73,29.92,29.84,4,1,9,0.01
2014-10-13,57.9,48.9,43.9,49.3,44.6,41.2,98,86,64,29.90,29.86,8,3,16,0.01
2014-10-14,56.5,48.4,40.3,50.4,45.2,39.2,97,89,79,29.90,29.64,8,3,18,0.00
2014-10-15,56.7,53.4,51.3,55.8,51.8,47.8,97,95,87,29.64,29.28,10,5,23,0.31
2014-10-16,63.7,55.2,48.7,59.2,53.3,48.0,99,94,81,29.37,29.28,9,4,22,0.07
2014-10-17,61.3,56.6,51.8,59.4,55.2,50.7,98,95,86,29.48,29.17,15,7,30,0.18
2014-10-18,63.9,58.6,55.8,57.0,55.1,53.8,95,88,73,29.45,29.21,14,9,28,0.07
2014-10-19,60.3,56.5,52.5,55.9,54.1,50.9,95,92,83,29.91,29.44,19,11,35,0.17
2014-10-20,58.6,55.3,52.0,56.7,53.7,50.2,96,94,89,29.90,29.39,24,10,45,0.44
2014-10-21,56.5,50.0,46.2,55.0,45.2,42.4,95,84,67,30.30,29.39,20,9,37,0.13
2014-10-22,57.2,54.5,49.6,54.3,50.0,43.7,94,85,80,30.30,30.00,16,11,30,0.00
2014-10-23,57.9,55.0,49.1,56.8,54.0,47.5,98,96,94,30.00,29.81,16,10,27,0.17
2014-10-24,55.6,51.4,48.7,51.6,48.0,44.4,95,88,77,29.86,29.82,15,8,27,0.14
2014-10-25,56.3,53.9,51.3,51.8,50.3,48.7,95,88,78,29.88,29.78,18,13,34,0.20
2014-10-26,59.0,56.8,53.4,57.4,54.3,50.0,97,92,82,29.88,29.78,23,13,39,0.11
2014-10-27,61.2,59.7,58.3,58.3,57.3,56.3,96,92,88,29.81,29.60,12,7,23,0.05
2014-10-28,59.9,51.1,42.6,59.4,48.4,39.4,98,91,73,30.00,29.59,12,4,21,1.01
2014-10-29,53.4,45.1,36.9,52.2,43.2,35.8,97,93,85,30.03,29.79,6,2,15,0.00
2014-10-30,62.4,58.5,53.4,59.2,56.9,52.3,98,95,88,29.79,29.67,10,7,21,0.02
2014-10-31,60.4,56.9,52.2,59.4,55.7,48.4,98,96,87,29.72,29.56,13,7,26,0.34
2014-11-1,56.1,53.3,49.8,54.5,50.6,46.9,97,91,80,29.73,29.38,19,10,34,0.28
2014-11-2,51.4,47.8,42.4,48.0,44.9,40.8,95,90,81,29.51,29.17,16,7,29,0.35
2014-11-3,50.7,45.8,42.1,46.8,43.1,39.9,96,90,79,29.21,29.01,15,5,26,0.27
2014-11-4,54.3,48.0,45.0,50.2,45.4,41.9,95,91,84,29.77,29.21,9,5,21,0.12
2014-11-5,50.4,46.1,39.2,45.9,43.0,37.4,96,89,77,29.87,29.53,13,4,23,0.10
2014-11-6,56.1,52.9,47.1,55.6,52.0,45.9,98,97,94,29.53,29.03,14,8,30,0.54
2014-11-7,53.4,47.3,44.4,50.0,45.2,41.0,97,92,84,29.31,29.08,12,6,23,0.17
2014-11-8,53.2,47.2,43.2,48.2,45.0,41.7,97,92,80,29.41,29.26,11,4,17,0.07
2014-11-9,55.2,48.5,44.8,50.9,46.2,43.2,97,92,78,29.60,29.41,9,4,15,0.03
2014-11-10,51.1,48.0,45.3,49.8,46.9,43.9,97,96,94,29.57,29.08,11,5,26,0.14
2014-11-11,50.9,46.6,39.0,50.0,45.5,38.1,98,96,92,29.18,29.11,6,2,12,0.00
2014-11-12,51.4,46.0,39.4,50.2,45.0,38.7,99,96,88,29.22,29.06,11,5,21,0.14
2014-11-13,52.0,46.3,44.1,49.1,44.9,42.8,96,95,87,29.23,29.09,14,6,27,0.45
2014-11-14,53.8,47.3,42.6,50.2,45.8,41.7,98,95,86,29.28,29.02,11,5,22,0.54
2014-11-15,54.0,47.1,42.1,50.9,45.5,41.2,98,94,88,29.47,29.28,5,2,10,0.00
2014-11-16,50.5,45.1,41.2,50.4,44.4,40.5,99,98,96,29.82,29.46,5,2,11,0.02
2014-11-17,51.6,47.0,42.4,48.7,45.8,41.9,99,96,87,29.82,29.77,7,4,16,0.01
2014-11-18,51.6,46.5,39.4,49.1,44.7,38.5,99,94,83,29.80,29.77,7,3,18,0.01
2014-11-19,54.7,49.2,39.6,49.8,45.7,37.8,95,88,78,30.13,29.77,12,5,27,0.04
2014-11-20,45.9,40.5,36.5,45.5,40.0,36.0,100,98,94,30.24,30.07,5,3,13,0.01
2014-11-21,54.7,49.9,44.4,53.6,49.0,44.1,100,97,95,30.07,29.55,9,5,22,0.19
2014-11-22,51.6,46.5,39.7,49.3,44.3,37.4,98,92,77,30.08,29.58,10,4,17,0.12
2014-11-23,48.6,40.2,33.3,44.6,38.1,32.0,98,92,82,30.20,30.08,7,2,12,0.00
2014-11-24,50.0,44.9,41.9,48.4,42.7,39.4,97,92,88,30.29,30.17,9,4,17,0.03
2014-11-25,48.2,43.3,39.4,48.0,42.7,38.8,99,98,95,30.28,30.05,6,3,12,0.06
2014-11-26,46.9,41.9,36.0,44.8,40.5,35.1,98,95,88,30.05,29.66,8,2,17,0.00
2014-11-27,48.2,46.2,43.5,45.9,44.0,41.4,97,92,88,29.66,29.37,9,5,22,0.01
2014-11-28,54.0,48.3,43.5,50.2,46.2,42.3,97,93,87,29.77,29.41,7,4,18,0.00
2014-11-29,53.1,46.9,41.5,51.6,46.2,41.0,99,97,94,29.94,29.76,9,3,15,0.01
2014-11-30,49.8,44.8,38.5,48.9,43.8,37.4,98,96,93,30.10,29.94,5,1,8,0.01
2014-12-1,49.8,46.1,38.7,49.5,45.2,36.9,99,97,92,30.21,29.95,9,3,19,0.16
2014-12-2,48.0,39.9,34.0,42.3,37.0,31.8,96,89,77,30.48,30.21,5,1,11,0.01
2014-12-3,47.1,43.4,39.4,46.2,42.5,38.3,98,96,94,30.48,30.20,5,1,8,0.08
2014-12-4,45.9,43.7,41.4,45.0,42.8,39.6,98,97,93,30.19,30.00,13,4,27,0.17
2014-12-5,46.6,42.1,38.5,42.8,39.2,34.3,93,89,84,30.43,30.17,9,4,17,0.02
2014-12-6,52.2,49.3,44.1,51.1,47.8,41.9,98,95,91,30.42,30.01,17,9,31,0.21
2014-12-7,50.5,41.8,37.8,49.6,39.1,35.4,97,90,77,30.13,30.00,16,8,32,0.22
2014-12-8,45.7,40.4,36.5,42.8,37.9,34.3,95,91,83,30.36,30.07,11,4,17,0.02
2014-12-9,53.1,47.6,40.6,52.5,45.6,36.7,98,93,83,30.32,29.75,23,13,45,0.35
2014-12-10,45.0,42.3,39.7,40.8,38.8,35.6,92,87,78,29.97,29.78,21,14,42,0.43
2014-12-11,44.2,42.2,38.8,42.8,40.3,37.6,96,93,82,29.79,29.32,19,10,39,0.58
2014-12-12,42.4,38.0,34.2,39.6,36.2,33.1,97,93,85,29.85,29.32,8,5,17,0.05
2014-12-13,47.7,41.0,34.3,45.7,38.6,31.1,96,91,86,29.94,29.74,14,6,24,0.06
2014-12-14,50.2,46.2,42.4,49.3,43.9,38.8,97,92,84,29.79,29.60,17,9,29,0.19
2014-12-15,46.9,42.7,40.1,44.4,40.5,37.0,95,92,84,30.01,29.79,8,4,13,0.02
2014-12-16,52.2,46.8,42.3,51.6,45.5,39.9,99,95,86,30.01,29.71,18,7,34,0.33
2014-12-17,52.9,52.3,51.8,52.5,52.0,51.4,99,99,98,29.71,29.66,16,11,28,0.36
2014-12-18,53.2,50.4,43.0,53.1,49.8,39.6,99,98,88,29.79,29.55,22,13,38,0.59
2014-12-19,46.8,43.8,42.1,43.7,40.6,38.5,92,88,84,30.24,29.79,13,6,25,0.05
2014-12-20,48.7,45.9,43.5,46.2,43.6,41.2,95,92,88,30.40,30.24,16,8,28,0.02
2014-12-21,52.5,51.3,48.4,52.2,50.8,46.0,99,98,91,30.29,29.92,18,14,35,0.23
2014-12-22,52.5,52.2,51.6,52.2,51.8,51.3,99,98,98,29.92,29.82,23,18,39,0.69
2014-12-23,52.7,49.5,41.7,52.3,48.9,40.1,99,98,95,29.93,29.70,20,11,36,0.26
2014-12-24,45.9,42.4,40.3,42.3,39.2,36.5,94,88,82,30.31,29.92,13,6,24,0.02
2014-12-25,47.1,42.1,39.2,42.4,38.9,36.3,92,88,83,30.55,30.32,8,4,13,0.00
2014-12-26,43.0,40.0,37.8,42.4,38.8,37.0,98,96,92,30.49,29.89,12,5,24,0.54
2014-12-27,42.1,39.3,37.0,40.1,37.4,34.9,96,93,86,30.30,30.01,9,4,19,0.05
2014-12-28,39.7,34.5,30.4,37.2,32.9,28.9,97,94,89,30.69,30.30,5,1,11,0.00
2014-12-29,43.2,39.0,32.0,40.3,37.2,30.9,98,93,88,30.69,30.61,10,5,20,0.01
2014-12-30,48.4,44.3,39.4,45.0,41.6,37.2,95,90,86,30.61,30.25,13,7,23,0.00
2014-12-31,53.2,49.8,46.8,51.4,47.9,44.6,97,93,86,30.25,30.04,16,9,28,0.16
2015-1-1,56.1,51.4,44.8,55.4,49.5,38.3,98,93,75,30.12,29.72,23,14,43,0.53
2015-1-2,48.6,44.7,40.6,42.6,39.2,36.3,89,81,70,30.45,30.11,15,9,35,0.09